createdAt,value
2019-05-10T00:01:49.778Z,4.85
2019-05-10T00:04:36.206Z,4.15
2019-05-10T00:07:22.297Z,4.30
2019-05-10T00:09:50.413Z,4.20
2019-05-10T00:12:30.223Z,6.15
2019-05-10T00:14:58.698Z,4.90
2019-05-10T00:17:27.109Z,6.80
2019-05-10T00:19:56.152Z,5.12
2019-05-10T00:22:24.574Z,9.43
2019-05-10T00:25:03.807Z,5.47
2019-05-10T00:27:22.558Z,6.92
2019-05-10T00:29:51.056Z,5.67
2019-05-10T00:32:19.516Z,6.28
2019-05-10T00:34:48.009Z,3.62
2019-05-10T00:37:16.491Z,5.15
2019-05-10T00:39:45.057Z,4.30
2019-05-10T00:42:14.177Z,3.10
2019-05-10T00:44:42.731Z,8.18
2019-05-10T00:47:11.042Z,5.22
2019-05-10T00:49:39.799Z,7.85
2019-05-10T00:52:08.311Z,5.20
2019-05-10T00:54:36.818Z,5.67
2019-05-10T00:57:05.280Z,6.58
2019-05-10T00:59:33.765Z,4.92
2019-05-10T01:02:02.293Z,5.47
2019-05-10T01:04:30.716Z,5.33
2019-05-10T01:06:59.464Z,5.67
2019-05-10T01:09:28.233Z,4.37
2019-05-10T01:11:56.938Z,4.85
2019-05-10T01:14:25.452Z,8.15
2019-05-10T01:16:53.885Z,5.75
2019-05-10T01:19:23.388Z,5.05
2019-05-10T01:21:51.882Z,5.25
2019-05-10T01:24:20.341Z,5.92
2019-05-10T01:26:48.850Z,4.20
2019-05-10T01:29:17.303Z,5.42
2019-05-10T01:31:45.871Z,4.53
2019-05-10T01:34:16.731Z,5.58
2019-05-10T01:36:45.211Z,4.67
2019-05-10T01:39:14.408Z,4.55
2019-05-10T01:41:43.008Z,4.70
2019-05-10T01:44:11.704Z,8.10
2019-05-10T01:46:40.118Z,5.08
2019-05-10T01:49:08.548Z,5.33
2019-05-10T01:51:37.059Z,6.05
2019-05-10T01:54:05.509Z,4.62
2019-05-10T01:56:34.014Z,5.85
2019-05-10T01:59:02.474Z,4.92
2019-05-10T02:01:31.261Z,4.25
2019-05-10T02:03:59.747Z,6.78
2019-05-10T02:06:28.233Z,5.70
2019-05-10T02:08:56.707Z,5.03
2019-05-10T02:11:25.200Z,3.52
2019-05-10T02:13:53.669Z,4.45
2019-05-10T02:16:22.151Z,6.50
2019-05-10T02:18:50.859Z,4.78
2019-05-10T02:21:19.282Z,6.92
2019-05-10T02:23:47.851Z,3.75
2019-05-10T02:26:16.241Z,4.65
2019-05-10T02:28:45.706Z,5.03
2019-05-10T02:31:14.957Z,5.75
2019-05-10T02:33:43.435Z,5.33
2019-05-10T02:36:11.929Z,5.65
2019-05-10T02:38:40.673Z,6.62
2019-05-10T02:41:09.476Z,6.42
2019-05-10T02:43:37.963Z,7.53
2019-05-10T02:46:06.450Z,4.83
2019-05-10T02:48:34.952Z,4.95
2019-05-10T02:51:03.560Z,5.42
2019-05-10T02:53:31.941Z,5.25
2019-05-10T02:56:00.472Z,9.98
2019-05-10T02:58:29.152Z,7.17
2019-05-10T03:00:57.766Z,7.53
2019-05-10T03:03:28.185Z,6.87
2019-05-10T03:05:56.767Z,5.85
2019-05-10T03:08:25.347Z,5.50
2019-05-10T03:10:56.798Z,4.00
2019-05-10T03:13:28.116Z,6.40
2019-05-10T03:15:56.638Z,6.60
2019-05-10T03:18:25.086Z,5.65
2019-05-10T03:20:53.815Z,6.47
2019-05-10T03:23:22.311Z,4.28
2019-05-10T03:25:50.741Z,5.17
2019-05-10T03:28:19.205Z,7.00
2019-05-10T03:30:47.713Z,4.75
2019-05-10T03:33:20.669Z,4.83
2019-05-10T03:35:49.170Z,8.55
2019-05-10T03:38:17.627Z,6.35
2019-05-10T03:40:46.129Z,4.53
2019-05-10T03:43:14.591Z,8.65
2019-05-10T03:45:43.345Z,8.63
2019-05-10T03:48:11.777Z,6.05
2019-05-10T03:50:40.278Z,6.17
2019-05-10T03:53:08.741Z,7.87
2019-05-10T03:55:37.232Z,7.78
2019-05-10T03:58:05.705Z,5.40
2019-05-10T04:00:34.192Z,6.47
2019-05-10T04:03:02.661Z,7.05
2019-05-10T04:05:39.081Z,6.20
2019-05-10T04:08:07.633Z,7.03
2019-05-10T04:10:36.102Z,6.95
2019-05-10T04:13:04.829Z,7.40
2019-05-10T04:15:33.268Z,6.83
2019-05-10T04:18:01.743Z,7.92
2019-05-10T04:20:30.118Z,8.73
2019-05-10T04:22:58.603Z,9.70
2019-05-10T04:25:27.091Z,8.25
2019-05-10T04:27:55.559Z,8.50
2019-05-10T04:30:24.038Z,9.20
2019-05-10T04:32:52.528Z,9.13
2019-05-10T04:35:21.015Z,8.50
2019-05-10T04:37:49.472Z,8.25
2019-05-10T04:40:18.956Z,8.80
2019-05-10T04:42:47.575Z,11.05
2019-05-10T04:45:16.981Z,9.50
2019-05-10T04:47:45.667Z,8.08
2019-05-10T04:50:14.451Z,8.30
2019-05-10T04:52:42.936Z,8.30
2019-05-10T04:55:11.481Z,9.30
2019-05-10T04:57:49.802Z,12.95
2019-05-10T05:00:08.562Z,7.37
2019-05-10T05:02:37.344Z,7.53
2019-05-10T05:05:06.011Z,10.88
2019-05-10T05:07:34.471Z,9.85
2019-05-10T05:10:02.899Z,9.85
2019-05-10T05:12:31.640Z,7.25
2019-05-10T05:15:00.110Z,11.20
2019-05-10T05:17:28.811Z,8.98
2019-05-10T05:19:57.307Z,7.55
2019-05-10T05:22:26.042Z,8.03
2019-05-10T05:24:55.258Z,10.38
2019-05-10T05:27:23.223Z,17.85
2019-05-10T05:29:51.644Z,7.50
2019-05-10T05:32:20.181Z,7.95
2019-05-10T05:34:49.419Z,6.30
2019-05-10T05:37:18.619Z,7.12
2019-05-10T05:39:47.098Z,8.45
2019-05-10T05:42:15.718Z,6.78
2019-05-10T05:44:44.185Z,7.37
2019-05-10T05:47:12.573Z,9.75
2019-05-10T05:49:41.028Z,6.62
2019-05-10T05:52:09.520Z,7.53
2019-05-10T05:54:37.985Z,8.95
2019-05-10T05:57:06.517Z,10.40
2019-05-10T05:59:34.949Z,6.62
2019-05-10T06:02:07.695Z,8.90
2019-05-10T06:04:32.201Z,8.40
2019-05-10T06:07:00.722Z,6.55
2019-05-10T06:09:32.063Z,8.75
2019-05-10T06:11:57.666Z,6.55
2019-05-10T06:14:26.139Z,5.08
2019-05-10T06:17:06.482Z,5.30
2019-05-10T06:19:42.682Z,8.03
2019-05-10T06:22:11.176Z,4.97
2019-05-10T06:24:39.670Z,6.90
2019-05-10T06:27:08.164Z,7.95
2019-05-10T06:29:36.606Z,4.35
2019-05-10T06:32:05.108Z,5.22
2019-05-10T06:34:38.798Z,5.75
2019-05-10T06:37:02.069Z,6.53
2019-05-10T06:39:30.524Z,6.22
2019-05-10T06:41:59.015Z,4.35
2019-05-10T06:44:31.136Z,5.90
2019-05-10T06:47:08.386Z,5.50
2019-05-10T06:49:34.601Z,5.87
2019-05-10T06:52:03.096Z,4.28
2019-05-10T06:54:31.618Z,6.45
2019-05-10T06:57:00.032Z,7.17
2019-05-10T06:59:28.525Z,5.00
2019-05-10T07:01:57.025Z,4.40
2019-05-10T07:04:25.481Z,4.03
2019-05-10T07:06:53.969Z,5.80
2019-05-10T07:09:22.444Z,3.87
2019-05-10T07:11:51.532Z,4.53
2019-05-10T07:14:25.517Z,2.62
2019-05-10T07:16:48.547Z,5.25
2019-05-10T07:19:17.016Z,6.30
2019-05-10T07:21:50.783Z,4.12
2019-05-10T07:24:18.510Z,5.22
2019-05-10T07:26:42.686Z,5.80
2019-05-10T07:29:11.432Z,5.92
2019-05-10T07:31:39.869Z,3.47
2019-05-10T07:34:09.663Z,2.90
2019-05-10T07:36:36.801Z,5.80
2019-05-10T07:39:08.310Z,4.87
2019-05-10T07:41:37.658Z,4.12
2019-05-10T07:44:10.628Z,6.10
2019-05-10T07:46:40.214Z,4.25
2019-05-10T07:49:07.301Z,3.85
2019-05-10T07:51:36.092Z,7.00
2019-05-10T07:54:06.244Z,1.60
2019-05-10T07:56:33.141Z,3.47
2019-05-10T07:59:01.550Z,6.30
2019-05-10T08:01:32.659Z,3.83
2019-05-10T08:03:59.203Z,5.10
2019-05-10T08:06:31.984Z,5.33
2019-05-10T08:09:01.922Z,4.47
2019-05-10T08:11:24.407Z,3.42
2019-05-10T08:13:57.801Z,4.17
2019-05-10T08:16:22.980Z,6.83
2019-05-10T08:18:55.688Z,5.10
2019-05-10T08:21:23.899Z,5.62
2019-05-10T08:23:51.870Z,5.25
2019-05-10T08:26:24.780Z,2.98
2019-05-10T08:28:57.444Z,4.15
2019-05-10T08:31:26.513Z,3.02
2019-05-10T08:33:58.753Z,4.22
2019-05-10T08:36:27.599Z,6.12
2019-05-10T08:39:05.087Z,3.35
2019-05-10T08:41:25.291Z,6.65
2019-05-10T08:43:53.626Z,3.33
2019-05-10T08:46:29.179Z,3.65
2019-05-10T08:48:53.827Z,3.42
2019-05-10T08:51:22.614Z,4.30
2019-05-10T08:53:53.590Z,2.67
2019-05-10T08:56:21.681Z,1.85
2019-05-10T08:58:55.392Z,2.30
2019-05-10T09:01:29.628Z,2.67
2019-05-10T09:03:59.912Z,3.92
2019-05-10T09:06:22.117Z,3.40
2019-05-10T09:08:52.834Z,5.05
2019-05-10T09:11:18.542Z,3.67
2019-05-10T09:13:47.050Z,2.98
2019-05-10T09:16:15.741Z,4.47
2019-05-10T09:18:50.293Z,2.25
2019-05-10T09:21:14.251Z,3.20
2019-05-10T09:23:42.683Z,5.17
2019-05-10T09:26:15.279Z,3.95
2019-05-10T09:28:38.134Z,4.60
2019-05-10T09:31:18.671Z,2.98
2019-05-10T09:33:35.086Z,4.25
2019-05-10T09:36:03.561Z,4.83
2019-05-10T09:38:37.148Z,3.60
2019-05-10T09:41:02.445Z,4.60
2019-05-10T09:43:29.020Z,3.70
2019-05-10T09:45:57.489Z,3.52
2019-05-10T09:48:26.179Z,2.47
2019-05-10T09:50:56.001Z,5.33
2019-05-10T09:53:26.715Z,3.90
2019-05-10T09:56:01.745Z,3.35
2019-05-10T09:58:22.206Z,2.02
2019-05-10T10:00:48.784Z,3.42
2019-05-10T10:03:17.292Z,3.85
2019-05-10T10:05:48.078Z,2.50
2019-05-10T10:08:14.420Z,2.50
2019-05-10T10:10:42.830Z,2.52
2019-05-10T10:13:14.011Z,3.83
2019-05-10T10:15:40.832Z,4.78
2019-05-10T10:18:12.476Z,3.37
2019-05-10T10:20:43.448Z,1.90
2019-05-10T10:23:07.489Z,4.70
2019-05-10T10:25:40.545Z,2.80
2019-05-10T10:28:08.193Z,4.42
2019-05-10T10:30:33.830Z,1.47
2019-05-10T10:33:05.908Z,3.27
2019-05-10T10:35:31.150Z,2.80
2019-05-10T10:38:02.874Z,7.40
2019-05-10T10:40:28.153Z,4.00
2019-05-10T10:42:57.801Z,3.22
2019-05-10T10:45:27.674Z,3.27
2019-05-10T10:47:57.158Z,2.05
2019-05-10T10:50:24.362Z,3.25
2019-05-10T10:52:52.816Z,2.05
2019-05-10T10:55:21.304Z,6.05
2019-05-10T10:57:50.103Z,1.72
2019-05-10T11:00:23.657Z,3.90
2019-05-10T11:02:51.888Z,5.78
2019-05-10T11:05:18.653Z,4.22
2019-05-10T11:07:47.763Z,2.40
2019-05-10T11:10:19.019Z,3.33
2019-05-10T11:12:44.047Z,3.80
2019-05-10T11:15:16.530Z,2.40
2019-05-10T11:17:47.890Z,5.78
2019-05-10T11:20:16.417Z,3.10
2019-05-10T11:22:49.787Z,3.40
2019-05-10T11:25:14.648Z,2.72
2019-05-10T11:27:47.629Z,4.90
2019-05-10T11:30:15.354Z,4.65
2019-05-10T11:32:43.823Z,2.12
2019-05-10T11:35:18.965Z,7.35
2019-05-10T11:37:43.367Z,4.62
2019-05-10T11:40:11.315Z,4.87
2019-05-10T11:42:43.832Z,2.75
2019-05-10T11:45:11.075Z,3.10
2019-05-10T11:47:42.473Z,1.42
2019-05-10T11:50:10.615Z,4.20
2019-05-10T11:52:42.179Z,4.58
2019-05-10T11:55:12.969Z,2.70
2019-05-10T11:57:44.351Z,3.45
2019-05-10T12:00:24.528Z,3.35
2019-05-10T12:03:01.105Z,1.82
2019-05-10T12:05:16.692Z,2.50
2019-05-10T12:07:45.683Z,3.52
2019-05-10T12:10:25.663Z,3.10
2019-05-10T12:13:08.675Z,2.62
2019-05-10T12:17:59.555Z,3.42
2019-05-10T12:20:39.362Z,3.27
2019-05-10T12:22:54.496Z,1.57
2019-05-10T12:25:42.610Z,3.15
2019-05-10T12:27:53.463Z,2.52
2019-05-10T12:30:21.918Z,1.97
2019-05-10T12:33:05.859Z,4.05
2019-05-10T12:35:35.522Z,2.33
2019-05-10T12:38:01.499Z,2.58
2019-05-10T12:40:31.418Z,3.20
2019-05-10T12:42:57.925Z,3.13
2019-05-10T12:45:32.542Z,5.50
2019-05-10T12:48:01.631Z,2.08
2019-05-10T12:50:30.578Z,2.50
2019-05-10T12:53:12.649Z,2.12
2019-05-10T12:55:27.505Z,2.35
2019-05-10T12:57:56.239Z,3.15
2019-05-10T13:00:24.745Z,2.75
2019-05-10T13:02:53.651Z,2.47
2019-05-10T13:05:30.942Z,5.70
2019-05-10T13:07:50.802Z,1.77
2019-05-10T13:10:19.426Z,1.85
2019-05-10T13:12:47.766Z,5.17
2019-05-10T13:15:16.330Z,3.67
2019-05-10T13:17:52.996Z,2.47
2019-05-10T13:20:19.419Z,4.95
2019-05-10T13:22:47.925Z,4.03
2019-05-10T13:25:16.582Z,3.45
2019-05-10T13:27:45.047Z,3.00
2019-05-10T13:30:13.522Z,2.75
2019-05-10T13:32:42.795Z,3.12
2019-05-10T13:35:11.212Z,2.83
2019-05-10T13:37:39.686Z,2.90
2019-05-10T13:40:11.157Z,1.82
2019-05-10T13:42:43.712Z,3.20
2019-05-10T13:45:08.107Z,2.87
2019-05-10T13:47:36.569Z,2.75
2019-05-10T13:50:05.949Z,1.62
2019-05-10T13:52:37.978Z,1.70
2019-05-10T13:55:03.016Z,2.98
2019-05-10T13:57:31.782Z,1.57
2019-05-10T14:00:02.248Z,3.70
2019-05-10T14:02:33.272Z,4.62
2019-05-10T14:04:57.898Z,1.85
2019-05-10T14:07:26.633Z,3.90
2019-05-10T14:09:55.056Z,1.90
2019-05-10T14:12:25.588Z,2.72
2019-05-10T14:14:55.280Z,2.27
2019-05-10T14:17:20.515Z,2.17
2019-05-10T14:19:48.998Z,2.12
2019-05-10T14:22:17.708Z,2.92
2019-05-10T14:24:50.717Z,2.42
2019-05-10T14:27:14.742Z,1.70
2019-05-10T14:29:43.837Z,2.05
2019-05-10T14:32:12.314Z,1.82
2019-05-10T14:34:51.095Z,3.52
2019-05-10T14:37:19.950Z,1.77
2019-05-10T14:39:48.342Z,1.80
2019-05-10T14:42:16.850Z,0.88
2019-05-10T14:44:48.181Z,1.92
2019-05-10T14:49:46.888Z,2.00
2019-05-10T14:52:14.076Z,2.75
2019-05-10T14:54:44.576Z,1.95
2019-05-10T14:57:12.079Z,1.65
2019-05-10T14:59:40.896Z,2.12
2019-05-10T15:02:17.024Z,1.90
2019-05-10T15:04:44.989Z,1.85
2019-05-10T15:07:14.279Z,1.52
2019-05-10T15:09:43.572Z,1.52
2019-05-10T15:12:16.404Z,1.95
2019-05-10T15:14:42.705Z,1.32
2019-05-10T15:17:13.547Z,1.12
2019-05-10T15:19:56.514Z,1.15
2019-05-10T15:22:18.579Z,2.85
2019-05-10T15:27:16.156Z,2.17
2019-05-10T15:29:41.232Z,3.50
2019-05-10T15:32:09.735Z,2.58
2019-05-10T15:34:38.138Z,2.27
2019-05-10T15:37:09.284Z,1.98
2019-05-10T15:39:35.127Z,2.52
2019-05-10T15:42:03.589Z,2.30
2019-05-10T15:44:33.744Z,3.20
2019-05-10T15:47:00.525Z,2.30
2019-05-10T15:49:29.782Z,3.27
2019-05-10T15:52:16.163Z,3.60
2019-05-10T15:54:26.726Z,1.90
2019-05-10T15:56:55.773Z,5.28
2019-05-10T15:59:24.198Z,1.95
2019-05-10T16:01:52.371Z,4.22
2019-05-10T16:04:20.840Z,3.83
2019-05-10T16:06:49.407Z,3.42
2019-05-10T16:09:19.119Z,2.45
2019-05-10T16:11:46.566Z,4.10
2019-05-10T16:14:15.079Z,3.15
2019-05-10T16:16:43.561Z,2.12
2019-05-10T16:19:12.760Z,3.15
2019-05-10T16:21:40.653Z,2.62
2019-05-10T16:24:09.077Z,2.12
2019-05-10T16:26:39.169Z,8.80
2019-05-10T16:29:07.756Z,1.90
2019-05-10T16:31:36.169Z,1.67
2019-05-10T16:34:04.650Z,2.95
2019-05-10T16:36:33.131Z,2.95
2019-05-10T16:39:02.106Z,2.60
2019-05-10T16:41:32.831Z,1.72
2019-05-10T16:46:28.987Z,3.83
2019-05-10T16:48:57.407Z,2.20
2019-05-10T16:51:25.869Z,2.65
2019-05-10T16:53:54.355Z,1.20
2019-05-10T16:56:22.816Z,3.05
2019-05-10T16:58:53.241Z,1.33
2019-05-10T17:01:25.371Z,1.15
2019-05-10T17:03:51.147Z,2.17
2019-05-10T17:06:17.258Z,1.05
2019-05-10T17:08:45.756Z,3.20
2019-05-10T17:11:14.222Z,1.33
2019-05-10T17:13:43.285Z,2.85
2019-05-10T17:16:11.558Z,2.83
2019-05-10T17:18:39.624Z,1.30
2019-05-10T17:21:08.151Z,3.83
2019-05-10T17:23:36.615Z,1.90
2019-05-10T17:26:05.093Z,2.90
2019-05-10T17:28:35.371Z,3.10
2019-05-10T17:31:07.707Z,2.08
2019-05-10T17:33:31.128Z,2.20
2019-05-10T17:36:07.974Z,3.92
2019-05-10T17:38:28.029Z,2.65
2019-05-10T17:40:56.493Z,2.17
2019-05-10T17:43:24.955Z,2.65
2019-05-10T17:45:53.969Z,3.25
2019-05-10T17:48:22.384Z,2.65
2019-05-10T17:50:50.865Z,5.53
2019-05-10T17:53:19.303Z,1.92
2019-05-10T17:55:49.180Z,4.83
2019-05-10T17:58:17.188Z,2.00
2019-05-10T18:00:44.836Z,2.72
2019-05-10T18:03:13.339Z,2.02
2019-05-10T18:05:46.878Z,3.70
2019-05-10T18:08:10.288Z,2.20
2019-05-10T18:10:38.799Z,1.77
2019-05-10T18:13:07.256Z,3.17
2019-05-10T18:15:35.733Z,4.10
2019-05-10T18:18:04.619Z,1.72
2019-05-10T18:20:40.802Z,3.00
2019-05-10T18:23:01.546Z,4.53
2019-05-10T18:25:30.026Z,2.05
2019-05-10T18:27:58.510Z,3.87
2019-05-10T18:30:27.138Z,2.50
2019-05-10T18:32:55.594Z,4.78
2019-05-10T18:35:24.294Z,2.98
2019-05-10T18:37:53.674Z,2.87
2019-05-10T18:40:25.330Z,3.80
2019-05-10T18:42:49.708Z,5.60
2019-05-10T18:45:18.454Z,7.42
2019-05-10T18:47:46.970Z,2.10
2019-05-10T18:50:15.469Z,4.05
2019-05-10T18:52:43.947Z,3.77
2019-05-10T18:55:12.416Z,4.47
2019-05-10T18:57:45.230Z,4.62
2019-05-10T19:00:10.566Z,4.10
2019-05-10T19:02:39.086Z,4.25
2019-05-10T19:05:09.298Z,3.35
2019-05-10T19:07:37.807Z,3.80
2019-05-10T19:10:06.584Z,5.60
2019-05-10T19:12:35.658Z,3.47
2019-05-10T19:15:09.005Z,2.67
2019-05-10T19:17:33.551Z,4.97
2019-05-10T19:20:02.183Z,3.10
2019-05-10T19:22:30.995Z,2.58
2019-05-10T19:25:10.657Z,6.05
2019-05-10T19:27:28.094Z,4.12
2019-05-10T19:29:57.216Z,1.87
2019-05-10T19:32:25.700Z,2.80
2019-05-10T19:34:57.464Z,3.52
2019-05-10T19:37:30.012Z,3.58
2019-05-10T19:39:51.941Z,5.27
2019-05-10T19:42:20.527Z,5.37
2019-05-10T19:44:49.020Z,4.58
2019-05-10T19:47:19.988Z,10.32
2019-05-10T19:49:51.778Z,9.13
2019-05-10T19:52:14.745Z,10.30
2019-05-10T19:54:43.226Z,9.95
2019-05-10T19:57:16.193Z,21.35
2019-05-10T19:59:43.906Z,17.75
2019-05-10T20:02:08.984Z,19.23
2019-05-10T20:04:37.439Z,20.32
2019-05-10T20:07:05.935Z,21.12
2019-05-10T20:09:35.508Z,12.15
2019-05-10T20:12:03.901Z,10.25
2019-05-10T20:14:33.410Z,8.60
2019-05-10T20:17:01.984Z,6.53
2019-05-10T20:19:30.551Z,5.80
2019-05-10T20:21:59.014Z,11.57
2019-05-10T20:24:27.518Z,11.85
2019-05-10T20:26:55.994Z,62.25
2019-05-10T20:29:24.461Z,107.52
2019-05-10T20:31:52.948Z,90.60
2019-05-10T20:34:24.295Z,55.85
2019-05-10T20:36:50.216Z,52.70
2019-05-10T20:39:18.687Z,46.00
2019-05-10T20:41:47.183Z,37.03
2019-05-10T20:44:15.655Z,39.75
2019-05-10T20:46:44.154Z,44.63
2019-05-10T20:49:12.558Z,41.53
2019-05-10T20:51:41.297Z,45.63
2019-05-10T20:54:09.790Z,34.13
2019-05-10T20:56:38.337Z,37.55
2019-05-10T20:59:06.754Z,40.30
2019-05-10T21:01:36.001Z,40.60
2019-05-10T21:04:04.460Z,31.12
2019-05-10T21:06:32.939Z,24.18
2019-05-10T21:09:01.393Z,26.97
2019-05-10T21:11:30.181Z,20.75
2019-05-10T21:13:59.003Z,21.45
2019-05-10T21:16:27.497Z,21.75
2019-05-10T21:18:55.965Z,17.98
2019-05-10T21:21:24.402Z,19.32
2019-05-10T21:23:52.900Z,17.12
2019-05-10T21:26:21.353Z,11.88
2019-05-10T21:28:49.872Z,13.35
2019-05-10T21:31:18.329Z,15.18
2019-05-10T21:33:46.829Z,13.50
2019-05-10T21:36:15.330Z,13.62
2019-05-10T21:38:44.550Z,12.20
2019-05-10T21:41:13.104Z,12.78
2019-05-10T21:43:41.819Z,10.65
2019-05-10T21:46:10.328Z,11.05
2019-05-10T21:48:42.087Z,12.60
2019-05-10T21:51:10.623Z,8.28
2019-05-10T21:53:40.250Z,12.90
2019-05-10T21:56:09.611Z,10.78
2019-05-10T21:58:38.860Z,11.30
2019-05-10T22:01:08.092Z,9.48
2019-05-10T22:03:36.617Z,7.90
2019-05-10T22:06:05.441Z,6.50
2019-05-10T22:08:48.481Z,6.40
2019-05-10T22:11:02.454Z,7.03
2019-05-10T22:13:30.854Z,6.35
2019-05-10T22:15:59.328Z,6.10
2019-05-10T22:18:27.802Z,8.53
2019-05-10T22:21:02.056Z,6.50
2019-05-10T22:23:33.619Z,6.37
2019-05-10T22:28:29.912Z,8.95
2019-05-10T22:30:58.494Z,7.80
2019-05-10T22:33:27.078Z,6.30
2019-05-10T22:35:56.563Z,6.22
2019-05-10T22:38:26.040Z,9.05
2019-05-10T22:40:54.523Z,9.15
2019-05-10T22:43:23.001Z,8.48
2019-05-10T22:45:51.764Z,7.40
2019-05-10T22:48:20.285Z,6.75
2019-05-10T22:50:48.822Z,6.47
2019-05-10T22:53:17.399Z,8.78
2019-05-10T22:55:45.990Z,7.20
2019-05-10T22:58:14.550Z,11.10
2019-05-10T23:00:43.427Z,8.35
2019-05-10T23:03:11.918Z,8.00
2019-05-10T23:05:40.475Z,9.20
2019-05-10T23:08:09.493Z,8.95
2019-05-10T23:10:39.026Z,8.73
2019-05-10T23:13:08.524Z,8.85
2019-05-10T23:15:37.150Z,7.62
2019-05-10T23:18:05.667Z,7.72
2019-05-10T23:20:34.185Z,6.70
2019-05-10T23:23:02.713Z,6.87
2019-05-10T23:25:31.409Z,6.65
2019-05-10T23:27:59.946Z,11.30
2019-05-10T23:30:28.449Z,8.85
2019-05-10T23:32:57.007Z,6.85
2019-05-10T23:35:25.513Z,8.75
2019-05-10T23:37:53.956Z,8.00
2019-05-10T23:40:22.449Z,9.38
2019-05-10T23:42:50.929Z,7.20
2019-05-10T23:45:19.667Z,9.60
2019-05-10T23:47:48.213Z,8.05
2019-05-10T23:50:16.721Z,5.87
2019-05-10T23:52:45.283Z,7.60
2019-05-10T23:55:14.049Z,8.93
2019-05-10T23:57:42.540Z,9.10
